Check out our new BloomSky Weather System.

Active alerts


No alerts


Thunder radar  blitzortung!


Rain radar more information rain snow radar


Visit our other weather sites:

Template documentation
and downloads

And another site



Weather Underground History page Text

Daily Summary for October 7, 2017 Units:  English    Metric   Both
« Previous Day
Next Day »
Daily Weekly Monthly Yearly Custom
  High: Low: Average:
Temperature: 89.8 °F 67.8 °F 78 °F
Dew Point: 79.2 °F 66.4 °F 72.8 °F
Humidity: 97 % 65 % 85 %
Wind Speed: 5.0 mph 0.0 mph 0.9 mph
Wind Gust: 9.0 mph - -
Wind:- - WNW
Pressure: 29.80 in 29.66 in -
Precipitation: 0.00 in    
Historical Graphs
 
 
Tabular Data for October 7, 2017
Time Temperature Dew Point Pressure Wind Wind Speed Wind Gust Humidity Rainfall Rate (Hourly)
00:03 69.6 °F 67.3 °F 29.80 in Calm   1.0 mph 92 % 0.00 in
00:08 69.6 °F 67.3 °F 29.80 in Calm     92 % 0.00 in
00:12 69.4 °F 67.1 °F 29.80 in Calm     92 % 0.00 in
00:18 69.4 °F 67.1 °F 29.80 in Calm     92 % 0.00 in
00:23 69.3 °F 67.1 °F 29.79 in Calm     93 % 0.00 in
00:28 69.3 °F 67.1 °F 29.79 in Calm     93 % 0.00 in
00:33 69.1 °F 66.9 °F 29.79 in Calm     93 % 0.00 in
00:38 68.9 °F 66.7 °F 29.78 in Calm     93 % 0.00 in
00:48 68.5 °F 66.7 °F 29.78 in Calm     94 % 0.00 in
00:53 68.5 °F 67.1 °F 29.78 in Calm     95 % 0.00 in
00:58 68.7 °F 67.3 °F 29.78 in Calm     95 % 0.00 in
01:03 68.9 °F 67.1 °F 29.78 in Calm     94 % 0.00 in
01:08 68.7 °F 66.9 °F 29.78 in Calm     94 % 0.00 in
01:13 68.7 °F 66.9 °F 29.77 in Calm     94 % 0.00 in
01:18 68.7 °F 66.9 °F 29.77 in Calm     94 % 0.00 in
01:23 68.5 °F 66.7 °F 29.77 in Calm     94 % 0.00 in
01:28 68.4 °F 66.6 °F 29.76 in Calm     94 % 0.00 in
01:33 68.4 °F 66.6 °F 29.76 in Calm     94 % 0.00 in
01:34 68.4 °F 66.9 °F 29.77 in Calm     95 % 0.00 in
01:40 68.4 °F 66.9 °F 29.76 in Calm     95 % 0.00 in
01:45 68.5 °F 67.1 °F 29.76 in Calm     95 % 0.00 in
01:50 68.5 °F 67.1 °F 29.76 in Calm     95 % 0.00 in
01:55 68.5 °F 67.1 °F 29.75 in Calm   1.0 mph 95 % 0.00 in
02:00 68.5 °F 67.1 °F 29.75 in Calm   1.0 mph 95 % 0.00 in
02:05 68.5 °F 67.1 °F 29.75 in Calm   1.0 mph 95 % 0.00 in
02:10 68.4 °F 66.9 °F 29.75 in Calm     95 % 0.00 in
02:15 68.2 °F 66.7 °F 29.75 in Calm     95 % 0.00 in
02:20 68.0 °F 66.6 °F 29.74 in Calm     95 % 0.00 in
02:25 67.8 °F 66.4 °F 29.74 in Calm     95 % 0.00 in
02:30 67.8 °F 66.4 °F 29.74 in Calm     95 % 0.00 in
02:35 67.8 °F 66.4 °F 29.73 in Calm     95 % 0.00 in
02:40 67.8 °F 66.6 °F 29.73 in Calm     96 % 0.00 in
02:45 67.8 °F 66.6 °F 29.73 in Calm     96 % 0.00 in
02:50 67.8 °F 66.6 °F 29.73 in Calm     96 % 0.00 in
02:55 67.8 °F 66.6 °F 29.73 in Calm     96 % 0.00 in
03:00 68.0 °F 66.7 °F 29.73 in Calm     96 % 0.00 in
03:05 67.8 °F 66.6 °F 29.73 in Calm     96 % 0.00 in
03:10 68.0 °F 66.7 °F 29.73 in Calm     96 % 0.00 in
03:15 68.0 °F 66.7 °F 29.73 in Calm     96 % 0.00 in
03:20 68.2 °F 67.3 °F 29.72 in Calm   1.0 mph 97 % 0.00 in
03:25 68.2 °F 66.9 °F 29.72 in Calm   1.0 mph 96 % 0.00 in
03:30 68.4 °F 67.1 °F 29.72 in Calm   1.0 mph 96 % 0.00 in
03:35 68.4 °F 67.1 °F 29.73 in Calm   1.0 mph 96 % 0.00 in
03:40 68.4 °F 67.1 °F 29.73 in Calm   1.0 mph 96 % 0.00 in
03:45 68.4 °F 67.1 °F 29.73 in Calm   1.0 mph 96 % 0.00 in
03:50 68.4 °F 67.1 °F 29.73 in Calm   1.0 mph 96 % 0.00 in
03:55 68.4 °F 67.1 °F 29.73 in Calm   1.0 mph 96 % 0.00 in
04:00 68.4 °F 67.1 °F 29.73 in Calm     96 % 0.00 in
04:05 68.4 °F 66.9 °F 29.73 in Calm     95 % 0.00 in
04:10 68.2 °F 66.9 °F 29.73 in Calm   1.0 mph 96 % 0.00 in
04:15 68.2 °F 66.9 °F 29.73 in Calm   1.0 mph 96 % 0.00 in
04:20 68.2 °F 66.9 °F 29.73 in Calm   1.0 mph 96 % 0.00 in
04:25 68.0 °F 66.7 °F 29.73 in Calm     96 % 0.00 in
04:30 68.0 °F 66.7 °F 29.73 in Calm     96 % 0.00 in
04:35 68.2 °F 67.3 °F 29.73 in Calm     97 % 0.00 in
04:40 68.4 °F 67.5 °F 29.73 in ESE 1.0 mph 1.0 mph 97 % 0.00 in
04:45 68.7 °F 67.8 °F 29.73 in Calm   1.0 mph 97 % 0.00 in
04:51 68.9 °F 67.6 °F 29.73 in NNW 1.0 mph 2.0 mph 96 % 0.00 in
04:56 69.1 °F 67.8 °F 29.73 in NNW 1.0 mph 2.0 mph 96 % 0.00 in
05:01 69.3 °F 68.0 °F 29.73 in NW 1.0 mph 2.0 mph 96 % 0.00 in
05:06 69.3 °F 67.8 °F 29.73 in Calm   2.0 mph 95 % 0.00 in
05:11 69.3 °F 67.8 °F 29.73 in Calm   2.0 mph 95 % 0.00 in
05:16 69.3 °F 67.8 °F 29.74 in Calm   2.0 mph 95 % 0.00 in
05:21 69.3 °F 67.8 °F 29.74 in Calm   1.0 mph 95 % 0.00 in
05:26 69.1 °F 67.6 °F 29.74 in Calm   1.0 mph 95 % 0.00 in
05:36 69.4 °F 68.0 °F 29.74 in Calm   1.0 mph 95 % 0.00 in
05:41 69.4 °F 68.0 °F 29.74 in Calm   1.0 mph 95 % 0.00 in
05:46 69.6 °F 68.2 °F 29.74 in NW 1.0 mph 1.0 mph 95 % 0.00 in
05:51 69.8 °F 68.4 °F 29.75 in Calm   3.0 mph 95 % 0.00 in
05:56 69.8 °F 68.0 °F 29.75 in NNW 1.0 mph 3.0 mph 94 % 0.00 in
06:01 70.0 °F 68.2 °F 29.75 in Calm   3.0 mph 94 % 0.00 in
06:06 70.0 °F 68.2 °F 29.75 in NW 1.0 mph 2.0 mph 94 % 0.00 in
06:11 70.2 °F 68.4 °F 29.75 in Calm   2.0 mph 94 % 0.00 in
06:16 70.3 °F 68.5 °F 29.75 in Calm   1.0 mph 94 % 0.00 in
06:21 70.3 °F 68.2 °F 29.75 in WNW 1.0 mph 2.0 mph 93 % 0.00 in
06:26 70.5 °F 68.4 °F 29.74 in Calm   2.0 mph 93 % 0.00 in
06:31 70.7 °F 68.5 °F 29.75 in Calm   3.0 mph 93 % 0.00 in
06:36 70.7 °F 68.2 °F 29.75 in Calm   3.0 mph 92 % 0.00 in
06:41 70.9 °F 68.4 °F 29.75 in NW 1.0 mph 3.0 mph 92 % 0.00 in
06:46 70.9 °F 68.4 °F 29.75 in WNW 1.0 mph 3.0 mph 92 % 0.00 in
06:51 70.9 °F 68.4 °F 29.75 in NNW 2.0 mph 3.0 mph 92 % 0.00 in
07:01 70.9 °F 68.2 °F 29.75 in NW 1.0 mph 3.0 mph 91 % 0.00 in
07:06 70.9 °F 68.2 °F 29.74 in NW 2.0 mph 3.0 mph 91 % 0.00 in
07:11 70.9 °F 68.2 °F 29.74 in Calm   3.0 mph 91 % 0.00 in
07:16 70.9 °F 68.2 °F 29.75 in WNW 1.0 mph 3.0 mph 91 % 0.00 in
07:21 70.7 °F 68.0 °F 29.75 in Calm   3.0 mph 91 % 0.00 in
07:26 70.7 °F 68.2 °F 29.75 in Calm   2.0 mph 92 % 0.00 in
07:32 70.7 °F 68.2 °F 29.75 in NW 2.0 mph 2.0 mph 92 % 0.00 in
07:37 70.9 °F 68.4 °F 29.75 in NW 1.0 mph 3.0 mph 92 % 0.00 in
07:42 70.9 °F 68.2 °F 29.75 in NW 3.0 mph 3.0 mph 91 % 0.00 in
07:47 70.9 °F 68.2 °F 29.75 in WNW 2.0 mph 4.0 mph 91 % 0.00 in
07:52 71.1 °F 68.4 °F 29.75 in NW 1.0 mph 4.0 mph 91 % 0.00 in
07:57 71.1 °F 68.4 °F 29.75 in NW 1.0 mph 4.0 mph 91 % 0.00 in
08:02 71.2 °F 68.7 °F 29.75 in Calm   4.0 mph 92 % 0.00 in
08:07 71.4 °F 68.7 °F 29.75 in Calm   3.0 mph 91 % 0.00 in
08:12 71.6 °F 68.9 °F 29.75 in NNW 1.0 mph 3.0 mph 91 % 0.00 in
08:17 71.8 °F 69.1 °F 29.75 in Calm   3.0 mph 91 % 0.00 in
08:22 71.8 °F 69.1 °F 29.75 in WNW 1.0 mph 3.0 mph 91 % 0.00 in
08:27 72.0 °F 69.4 °F 29.76 in NW 1.0 mph 3.0 mph 92 % 0.00 in
08:32 72.7 °F 70.2 °F 29.76 in NNW 3.0 mph 3.0 mph 92 % 0.00 in
08:37 73.0 °F 70.3 °F 29.76 in NW 2.0 mph 4.0 mph 91 % 0.00 in
08:42 73.6 °F 70.5 °F 29.76 in WNW 2.0 mph 5.0 mph 90 % 0.00 in
08:47 74.1 °F 70.3 °F 29.77 in Calm   5.0 mph 88 % 0.00 in
08:52 74.7 °F 70.5 °F 29.77 in NNW 1.0 mph 5.0 mph 87 % 0.00 in
08:57 75.4 °F 70.9 °F 29.77 in Calm   4.0 mph 86 % 0.00 in
09:02 75.9 °F 71.4 °F 29.77 in NNW 2.0 mph 4.0 mph 86 % 0.00 in
09:07 76.5 °F 71.2 °F 29.77 in NW 2.0 mph 4.0 mph 84 % 0.00 in
09:12 76.6 °F 71.4 °F 29.78 in NNW 3.0 mph 4.0 mph 84 % 0.00 in
09:17 76.6 °F 71.4 °F 29.78 in NW 4.0 mph 5.0 mph 84 % 0.00 in
09:22 76.3 °F 71.1 °F 29.78 in NNW 3.0 mph 8.0 mph 84 % 0.00 in
09:27 76.3 °F 71.4 °F 29.78 in NW 2.0 mph 8.0 mph 85 % 0.00 in
09:32 76.3 °F 71.4 °F 29.78 in NNW 1.0 mph 8.0 mph 85 % 0.00 in
09:37 76.5 °F 71.6 °F 29.78 in NNW 1.0 mph 6.0 mph 85 % 0.00 in
09:42 77.2 °F 72.3 °F 29.78 in WNW 2.0 mph 5.0 mph 85 % 0.00 in
09:49 77.5 °F 72.3 °F 29.78 in NNW 4.0 mph 5.0 mph 84 % 0.00 in
09:54 77.7 °F 72.1 °F 29.79 in NNW 2.0 mph 5.0 mph 83 % 0.00 in
09:59 77.9 °F 72.3 °F 29.79 in NW 4.0 mph 5.0 mph 83 % 0.00 in
10:04 77.7 °F 72.5 °F 29.79 in NW 3.0 mph 6.0 mph 84 % 0.00 in
10:09 77.5 °F 72.3 °F 29.79 in WNW 3.0 mph 7.0 mph 84 % 0.00 in
10:14 77.4 °F 72.1 °F 29.78 in WNW 4.0 mph 7.0 mph 84 % 0.00 in
10:24 77.4 °F 72.5 °F 29.78 in NW 2.0 mph 7.0 mph 85 % 0.00 in
10:29 77.4 °F 72.5 °F 29.79 in NW 1.0 mph 7.0 mph 85 % 0.00 in
10:34 77.5 °F 72.7 °F 29.79 in WNW 2.0 mph 7.0 mph 85 % 0.00 in
10:39 77.5 °F 73.0 °F 29.78 in NNW 1.0 mph 6.0 mph 86 % 0.00 in
10:44 77.7 °F 73.2 °F 29.78 in NW 3.0 mph 7.0 mph 86 % 0.00 in
10:49 77.7 °F 73.2 °F 29.78 in NNW 1.0 mph 7.0 mph 86 % 0.00 in
10:54 78.1 °F 73.6 °F 29.78 in NNW 1.0 mph 7.0 mph 86 % 0.00 in
10:59 78.4 °F 73.9 °F 29.78 in Calm   6.0 mph 86 % 0.00 in
11:04 78.6 °F 73.8 °F 29.78 in North 2.0 mph 5.0 mph 85 % 0.00 in
11:09 79.0 °F 73.8 °F 29.78 in NW 3.0 mph 5.0 mph 84 % 0.00 in
11:14 79.3 °F 74.1 °F 29.78 in NW 1.0 mph 5.0 mph 84 % 0.00 in
11:19 79.9 °F 75.0 °F 29.78 in NNW 2.0 mph 5.0 mph 85 % 0.00 in
11:24 80.4 °F 75.6 °F 29.77 in ENE 3.0 mph 5.0 mph 85 % 0.00 in
11:29 81.3 °F 76.1 °F 29.77 in NW 2.0 mph 5.0 mph 84 % 0.00 in
11:34 82.0 °F 76.3 °F 29.77 in NW 1.0 mph 5.0 mph 83 % 0.00 in
11:39 82.6 °F 76.8 °F 29.77 in NNW 1.0 mph 5.0 mph 83 % 0.00 in
11:44 82.9 °F 76.8 °F 29.77 in Calm   5.0 mph 82 % 0.00 in
11:49 83.5 °F 77.4 °F 29.77 in NW 1.0 mph 5.0 mph 82 % 0.00 in
11:54 83.3 °F 77.2 °F 29.77 in East 1.0 mph 5.0 mph 82 % 0.00 in
12:04 83.1 °F 77.4 °F 29.76 in ESE 3.0 mph 4.0 mph 83 % 0.00 in
12:10 83.1 °F 77.4 °F 29.76 in NNW 2.0 mph 5.0 mph 83 % 0.00 in
12:15 83.1 °F 77.7 °F 29.76 in Calm   5.0 mph 84 % 0.00 in
12:20 83.7 °F 77.9 °F 29.75 in North 5.0 mph 6.0 mph 83 % 0.00 in
12:25 84.0 °F 78.6 °F 29.75 in NW 1.0 mph 6.0 mph 84 % 0.00 in
12:35 85.1 °F 78.3 °F 29.75 in NNW 3.0 mph 7.0 mph 80 % 0.00 in
12:40 85.3 °F 78.4 °F 29.74 in NW 3.0 mph 7.0 mph 80 % 0.00 in
12:45 85.5 °F 77.7 °F 29.74 in NW 5.0 mph 7.0 mph 78 % 0.00 in
12:50 85.3 °F 77.7 °F 29.74 in NW 3.0 mph 6.0 mph 78 % 0.00 in
12:55 85.6 °F 77.5 °F 29.74 in East 1.0 mph 6.0 mph 77 % 0.00 in
13:00 86.4 °F 79.0 °F 29.74 in ENE 2.0 mph 6.0 mph 79 % 0.00 in
13:05 87.3 °F 78.4 °F 29.73 in NNW 1.0 mph 6.0 mph 75 % 0.00 in
13:10 87.6 °F 79.2 °F 29.73 in NW 1.0 mph 6.0 mph 76 % 0.00 in
13:11 88.0 °F 78.6 °F 29.73 in NNW 2.0 mph 6.0 mph 74 % 0.00 in
13:16 88.0 °F 78.3 °F 29.73 in NNW 2.0 mph 6.0 mph 73 % 0.00 in
13:21 87.3 °F 77.2 °F 29.73 in NW 3.0 mph 9.0 mph 72 % 0.00 in
13:26 86.5 °F 77.2 °F 29.73 in NW 2.0 mph 9.0 mph 74 % 0.00 in
13:31 86.4 °F 77.9 °F 29.73 in NNW 4.0 mph 9.0 mph 76 % 0.00 in
13:36 86.2 °F 77.4 °F 29.73 in West 2.0 mph 6.0 mph 75 % 0.00 in
13:41 86.2 °F 77.4 °F 29.73 in ENE 2.0 mph 6.0 mph 75 % 0.00 in
13:46 86.2 °F 77.4 °F 29.73 in NW 4.0 mph 6.0 mph 75 % 0.00 in
13:51 85.6 °F 77.2 °F 29.72 in NW 2.0 mph 6.0 mph 76 % 0.00 in
13:56 85.5 °F 77.0 °F 29.72 in NW 3.0 mph 6.0 mph 76 % 0.00 in
14:01 85.6 °F 77.2 °F 29.72 in ENE 2.0 mph 6.0 mph 76 % 0.00 in
14:06 86.0 °F 77.9 °F 29.72 in NE 1.0 mph 6.0 mph 77 % 0.00 in
14:17 86.7 °F 77.4 °F 29.71 in North 1.0 mph 4.0 mph 74 % 0.00 in
14:22 86.5 °F 77.2 °F 29.71 in Calm   4.0 mph 74 % 0.00 in
14:27 86.9 °F 77.5 °F 29.71 in NNW 4.0 mph 4.0 mph 74 % 0.00 in
14:37 87.4 °F 77.4 °F 29.70 in NNW 3.0 mph 6.0 mph 72 % 0.00 in
14:42 88.0 °F 77.9 °F 29.70 in NW 3.0 mph 6.0 mph 72 % 0.00 in
14:47 88.5 °F 78.3 °F 29.70 in NW 2.0 mph 5.0 mph 72 % 0.00 in
14:52 88.5 °F 77.9 °F 29.70 in NNW 1.0 mph 5.0 mph 71 % 0.00 in
14:57 88.0 °F 77.4 °F 29.70 in NW 3.0 mph 6.0 mph 71 % 0.00 in
15:02 87.4 °F 76.8 °F 29.70 in NNW 1.0 mph 8.0 mph 71 % 0.00 in
15:07 87.4 °F 77.4 °F 29.69 in North 4.0 mph 8.0 mph 72 % 0.00 in
15:12 87.3 °F 77.2 °F 29.69 in WNW 3.0 mph 8.0 mph 72 % 0.00 in
15:17 87.1 °F 77.4 °F 29.69 in WNW 1.0 mph 6.0 mph 73 % 0.00 in
15:22 87.4 °F 77.4 °F 29.69 in WNW 2.0 mph 6.0 mph 72 % 0.00 in
15:27 88.0 °F 77.0 °F 29.69 in NNW 1.0 mph 6.0 mph 70 % 0.00 in
15:32 88.3 °F 78.1 °F 29.68 in NW 4.0 mph 7.0 mph 72 % 0.00 in
15:37 88.7 °F 77.2 °F 29.68 in NW 3.0 mph 7.0 mph 69 % 0.00 in
15:47 87.8 °F 76.8 °F 29.68 in NW 1.0 mph 6.0 mph 70 % 0.00 in
15:52 87.4 °F 76.5 °F 29.68 in NW 2.0 mph 5.0 mph 70 % 0.00 in
15:57 87.6 °F 76.6 °F 29.68 in WNW 2.0 mph 5.0 mph 70 % 0.00 in
16:02 88.0 °F 76.5 °F 29.68 in Calm   5.0 mph 69 % 0.00 in
16:12 89.1 °F 76.6 °F 29.68 in North 2.0 mph 6.0 mph 67 % 0.00 in
16:17 89.4 °F 77.0 °F 29.67 in Calm   6.0 mph 67 % 0.00 in
16:22 89.4 °F 77.5 °F 29.67 in SW 1.0 mph 6.0 mph 68 % 0.00 in
16:27 89.2 °F 76.8 °F 29.67 in NW 2.0 mph 6.0 mph 67 % 0.00 in
16:32 89.4 °F 77.5 °F 29.67 in Calm   6.0 mph 68 % 0.00 in
16:37 89.8 °F 77.4 °F 29.67 in WNW 2.0 mph 6.0 mph 67 % 0.00 in
16:42 89.6 °F 77.2 °F 29.67 in NW 2.0 mph 5.0 mph 67 % 0.00 in
16:47 89.8 °F 77.4 °F 29.67 in NW 3.0 mph 5.0 mph 67 % 0.00 in
16:48 89.8 °F 77.4 °F 29.67 in Calm   5.0 mph 67 % 0.00 in
16:53 89.4 °F 76.1 °F 29.67 in North 5.0 mph 5.0 mph 65 % 0.00 in
16:58 89.2 °F 76.8 °F 29.67 in NE 1.0 mph 7.0 mph 67 % 0.00 in
17:03 89.2 °F 76.5 °F 29.67 in NNW 2.0 mph 7.0 mph 66 % 0.00 in
17:08 89.2 °F 76.5 °F 29.67 in NW 2.0 mph 7.0 mph 66 % 0.00 in
17:13 88.9 °F 76.5 °F 29.67 in NW 3.0 mph 6.0 mph 67 % 0.00 in
17:18 88.7 °F 77.2 °F 29.67 in NNW 1.0 mph 5.0 mph 69 % 0.00 in
17:23 88.5 °F 77.0 °F 29.67 in NNW 2.0 mph 5.0 mph 69 % 0.00 in
17:28 88.3 °F 76.8 °F 29.67 in NW 2.0 mph 5.0 mph 69 % 0.00 in
17:33 88.2 °F 76.6 °F 29.67 in NW 2.0 mph 4.0 mph 69 % 0.00 in
17:38 88.2 °F 76.6 °F 29.66 in ENE 3.0 mph 5.0 mph 69 % 0.00 in
17:43 88.3 °F 76.5 °F 29.66 in WSW 1.0 mph 5.0 mph 68 % 0.00 in
17:48 88.3 °F 76.5 °F 29.66 in ENE 1.0 mph 5.0 mph 68 % 0.00 in
17:53 88.3 °F 76.5 °F 29.66 in WNW 1.0 mph 5.0 mph 68 % 0.00 in
17:58 88.3 °F 76.5 °F 29.66 in North 3.0 mph 5.0 mph 68 % 0.00 in
18:03 88.2 °F 76.3 °F 29.67 in NW 1.0 mph 6.0 mph 68 % 0.00 in
18:05 88.2 °F 76.3 °F 29.66 in NW 1.0 mph 6.0 mph 68 % 0.00 in
18:10 88.0 °F 75.6 °F 29.66 in NNW 3.0 mph 6.0 mph 67 % 0.00 in
18:15 87.6 °F 75.7 °F 29.66 in NW 1.0 mph 6.0 mph 68 % 0.00 in
18:20 87.4 °F 75.6 °F 29.66 in North 1.0 mph 4.0 mph 68 % 0.00 in
18:25 87.4 °F 76.5 °F 29.66 in NW 1.0 mph 4.0 mph 70 % 0.00 in
18:30 87.3 °F 76.6 °F 29.66 in NNW 1.0 mph 4.0 mph 71 % 0.00 in
18:35 87.1 °F 76.5 °F 29.66 in Calm   4.0 mph 71 % 0.00 in
18:40 86.7 °F 76.6 °F 29.67 in NW 1.0 mph 3.0 mph 72 % 0.00 in
18:45 86.5 °F 76.8 °F 29.67 in NNW 1.0 mph 3.0 mph 73 % 0.00 in
18:46 86.4 °F 76.6 °F 29.67 in NNW 1.0 mph 3.0 mph 73 % 0.00 in
18:51 86.2 °F 77.0 °F 29.67 in North 1.0 mph 2.0 mph 74 % 0.00 in
18:56 85.8 °F 77.0 °F 29.67 in Calm   2.0 mph 75 % 0.00 in
19:01 85.5 °F 76.6 °F 29.67 in Calm   2.0 mph 75 % 0.00 in
19:06 85.1 °F 76.6 °F 29.67 in Calm   2.0 mph 76 % 0.00 in
19:11 84.7 °F 76.3 °F 29.67 in Calm   1.0 mph 76 % 0.00 in
19:16 84.4 °F 76.5 °F 29.67 in Calm   1.0 mph 77 % 0.00 in
19:21 84.0 °F 76.5 °F 29.67 in Calm   1.0 mph 78 % 0.00 in
19:26 83.8 °F 76.6 °F 29.67 in Calm   1.0 mph 79 % 0.00 in
19:31 83.5 °F 76.3 °F 29.67 in Calm   1.0 mph 79 % 0.00 in
19:36 83.3 °F 76.5 °F 29.67 in Calm   1.0 mph 80 % 0.00 in
19:41 83.1 °F 76.3 °F 29.67 in Calm   1.0 mph 80 % 0.00 in
19:51 82.8 °F 76.3 °F 29.67 in Calm   1.0 mph 81 % 0.00 in
19:56 82.6 °F 76.5 °F 29.68 in Calm   1.0 mph 82 % 0.00 in
20:01 82.2 °F 76.1 °F 29.68 in Calm     82 % 0.00 in
20:06 81.9 °F 76.1 °F 29.68 in Calm     83 % 0.00 in
20:11 81.9 °F 76.1 °F 29.68 in Calm     83 % 0.00 in
20:16 81.7 °F 76.3 °F 29.68 in Calm     84 % 0.00 in
20:21 81.3 °F 76.1 °F 29.68 in Calm     84 % 0.00 in
20:26 81.1 °F 76.3 °F 29.68 in Calm     85 % 0.00 in
20:31 81.1 °F 76.3 °F 29.68 in Calm     85 % 0.00 in
20:36 81.0 °F 76.5 °F 29.68 in Calm     86 % 0.00 in
20:41 80.8 °F 76.3 °F 29.68 in Calm     86 % 0.00 in
20:46 80.4 °F 76.1 °F 29.68 in Calm     87 % 0.00 in
20:51 80.4 °F 76.1 °F 29.69 in Calm   1.0 mph 87 % 0.00 in
20:56 80.2 °F 76.1 °F 29.69 in Calm   1.0 mph 87 % 0.00 in
21:01 80.2 °F 76.1 °F 29.69 in Calm   1.0 mph 87 % 0.00 in
21:06 80.1 °F 76.1 °F 29.69 in Calm   1.0 mph 88 % 0.00 in
21:11 79.9 °F 75.9 °F 29.69 in Calm   1.0 mph 88 % 0.00 in
21:16 79.7 °F 75.7 °F 29.69 in Calm     88 % 0.00 in
21:21 79.5 °F 75.9 °F 29.69 in Calm     89 % 0.00 in
21:26 79.5 °F 75.9 °F 29.69 in Calm   1.0 mph 89 % 0.00 in
21:31 79.3 °F 75.7 °F 29.69 in Calm   1.0 mph 89 % 0.00 in
21:41 79.2 °F 75.6 °F 29.69 in Calm   1.0 mph 89 % 0.00 in
21:46 79.2 °F 75.9 °F 29.69 in Calm     90 % 0.00 in
21:47 79.2 °F 75.9 °F 29.69 in Calm     90 % 0.00 in
21:52 79.0 °F 75.7 °F 29.69 in Calm     90 % 0.00 in
21:57 78.8 °F 75.6 °F 29.70 in Calm     90 % 0.00 in
22:02 78.6 °F 75.4 °F 29.70 in Calm     90 % 0.00 in
22:07 78.4 °F 75.2 °F 29.70 in Calm     90 % 0.00 in
22:13 78.4 °F 75.6 °F 29.70 in Calm     91 % 0.00 in
22:18 78.3 °F 75.4 °F 29.70 in Calm     91 % 0.00 in
22:28 78.3 °F 75.4 °F 29.70 in Calm   1.0 mph 91 % 0.00 in
22:33 78.1 °F 75.2 °F 29.70 in Calm   1.0 mph 91 % 0.00 in
22:38 77.7 °F 74.8 °F 29.70 in Calm     91 % 0.00 in
22:43 77.5 °F 74.7 °F 29.70 in Calm     91 % 0.00 in
22:48 77.4 °F 74.8 °F 29.70 in Calm     92 % 0.00 in
22:53 77.4 °F 75.2 °F 29.70 in Calm     93 % 0.00 in
22:58 77.4 °F 75.2 °F 29.70 in Calm     93 % 0.00 in
23:03 77.5 °F 75.4 °F 29.70 in Calm     93 % 0.00 in
23:08 77.5 °F 75.4 °F 29.70 in Calm     93 % 0.00 in
23:13 77.5 °F 75.4 °F 29.70 in Calm     93 % 0.00 in
23:18 77.5 °F 75.4 °F 29.70 in Calm     93 % 0.00 in
23:23 77.5 °F 75.4 °F 29.70 in Calm     93 % 0.00 in
23:28 77.5 °F 75.4 °F 29.70 in Calm     93 % 0.00 in
23:33 77.7 °F 75.6 °F 29.70 in Calm     93 % 0.00 in
23:38 77.7 °F 75.6 °F 29.70 in Calm     93 % 0.00 in
23:43 78.1 °F 76.3 °F 29.71 in Calm     94 % 0.00 in
23:48 78.1 °F 76.3 °F 29.71 in Calm     94 % 0.00 in
23:53 78.1 °F 75.9 °F 29.71 in Calm     93 % 0.00 in
23:58 78.3 °F 76.1 °F 29.71 in Calm     93 % 0.00 in
Spring, Texas: Villages of Bridgestone
Compliments of Weather Underground - 2.75 mb

Script developed by  Jim McMurry - jmcmurry@mwt.net Adapted for the template by  Wim van der Kuil - Leuven-Template.eu

You find our weather info also at:

UK Metoffice

WeatherCloud

Weather Underground

Mid-South Weather Network

AWEKAS

Citizen Weather Observer Program (CWOP)

HAMweather, WeatherForYou, PWS Weather

Equipment we use:

Weather-station
Davis Vantage Vue

Weather-program
Meteohub

Weather-server
Debian 7.9 x86 (Guest)

Provider
DreamHost

Davis Vantage Vue

Meteohub

Debian 7.9 x86 (Guest)

DreamHost